Time;durP1;ratioP1;P1;durP2;ratioP2;P2;SDS_P1;SDS_P2;PMS_P1;PMS_P2;Temp;Humidity;BMP_temperature;BMP_pressure;BME280_temperature;BME280_humidity;BME280_pressure;Samples;Min_cycle;Max_cycle;Signal;HPM_P1;HPM_P2
2021/12/22 00:00:59;;;;;;;14.73;7.10;;;-0.80;99.90;;;;;;5072705;28;20225;-66
2021/12/22 00:03:26;;;;;;;15.17;7.77;;;-0.70;99.90;;;;;;5072184;28;20534;-67
2021/12/22 00:05:53;;;;;;;11.13;7.00;;;-0.70;99.90;;;;;;5073495;28;20248;-68
2021/12/22 00:08:22;;;;;;;9.83;6.50;;;-0.70;99.90;;;;;;5073170;28;20201;-67
2021/12/22 00:10:49;;;;;;;13.50;7.03;;;-0.80;99.90;;;;;;5072951;28;20293;-67
2021/12/22 00:13:16;;;;;;;14.53;7.37;;;-0.70;99.90;;;;;;5076645;28;20201;-66
2021/12/22 00:15:44;;;;;;;15.07;7.23;;;-0.70;99.90;;;;;;5072909;28;20281;-66
2021/12/22 00:18:11;;;;;;;14.27;7.53;;;-0.80;99.90;;;;;;5072715;28;20205;-66
2021/12/22 00:20:39;;;;;;;12.43;6.53;;;-0.80;99.90;;;;;;5071534;28;20229;-66
2021/12/22 00:23:05;;;;;;;13.83;7.43;;;-0.80;99.90;;;;;;5071284;28;20209;-66
2021/12/22 00:25:32;;;;;;;12.87;6.90;;;-0.80;99.90;;;;;;5068022;28;20242;-67
2021/12/22 00:27:59;;;;;;;14.17;7.57;;;-0.70;99.90;;;;;;5061913;28;20201;-66
2021/12/22 00:30:27;;;;;;;12.77;7.97;;;-0.70;99.90;;;;;;5072232;28;20220;-68
2021/12/22 00:33:02;;;;;;;15.17;7.93;;;-0.80;99.90;;;;;;5071860;28;20399;-67
2021/12/22 00:35:37;;;;;;;14.57;7.30;;;-0.80;99.90;;;;;;5071913;28;20216;-67
2021/12/22 00:38:04;;;;;;;12.87;6.80;;;-0.80;99.90;;;;;;5071785;28;20212;-67
2021/12/22 00:40:31;;;;;;;13.70;7.97;;;-0.70;99.90;;;;;;5070918;28;20225;-69
2021/12/22 00:42:58;;;;;;;14.97;7.77;;;-0.80;99.90;;;;;;5071629;28;20315;-68
2021/12/22 00:45:28;;;;;;;13.87;7.40;;;-0.70;99.90;;;;;;5072390;28;20205;-67
2021/12/22 00:47:56;;;;;;;12.97;7.77;;;-0.80;99.90;;;;;;5075713;28;20201;-67
2021/12/22 00:50:23;;;;;;;11.80;7.87;;;-0.80;99.90;;;;;;5075754;28;20609;-68
2021/12/22 00:52:51;;;;;;;12.00;7.23;;;-0.80;99.90;;;;;;5077301;28;20543;-69
2021/12/22 00:55:20;;;;;;;14.17;8.20;;;-0.80;99.90;;;;;;5080908;28;20643;-68
2021/12/22 00:57:47;;;;;;;13.60;8.17;;;-0.80;99.90;;;;;;5076557;28;20263;-67
2021/12/22 01:00:16;;;;;;;11.87;7.27;;;-0.80;99.90;;;;;;5075425;28;20227;-69
2021/12/22 01:02:44;;;;;;;11.87;7.23;;;-0.90;99.90;;;;;;5075489;28;20213;-68
2021/12/22 01:05:15;;;;;;;14.87;8.73;;;-0.90;99.90;;;;;;5074725;28;20215;-67
2021/12/22 01:07:45;;;;;;;17.03;9.23;;;-0.90;99.90;;;;;;5075343;28;20197;-67
2021/12/22 01:10:14;;;;;;;17.67;9.23;;;-0.90;99.90;;;;;;5076060;28;20205;-68
2021/12/22 01:12:41;;;;;;;13.80;7.83;;;-0.80;99.90;;;;;;5066630;28;20237;-68
2021/12/22 01:15:11;;;;;;;15.17;8.13;;;-0.90;99.90;;;;;;5072598;28;20215;-67
2021/12/22 01:17:38;;;;;;;10.10;7.90;;;-0.90;99.90;;;;;;5076356;28;20282;-68
2021/12/22 01:20:12;;;;;;;13.20;8.13;;;-0.80;99.90;;;;;;5076139;28;20641;-66
2021/12/22 01:22:48;;;;;;;14.20;8.27;;;-0.80;99.90;;;;;;5075681;28;20209;-67
2021/12/22 01:25:18;;;;;;;13.23;7.47;;;-0.90;99.90;;;;;;5074851;28;20213;-67
2021/12/22 01:27:45;;;;;;;12.63;8.57;;;-0.90;99.90;;;;;;5075292;28;20566;-68
2021/12/22 01:30:15;;;;;;;14.33;8.10;;;-0.90;99.90;;;;;;5074676;28;20550;-67
2021/12/22 01:32:43;;;;;;;13.00;7.67;;;-0.90;99.90;;;;;;5062549;28;20248;-67
2021/12/22 01:35:13;;;;;;;13.73;8.27;;;-1.00;99.90;;;;;;5075049;28;20201;-67
2021/12/22 01:37:41;;;;;;;13.20;7.70;;;-1.00;99.90;;;;;;5074741;28;20676;-66
2021/12/22 01:40:10;;;;;;;14.27;8.50;;;-1.00;99.90;;;;;;5073639;28;20213;-67
2021/12/22 01:42:38;;;;;;;14.77;8.43;;;-1.00;99.90;;;;;;5074417;28;20241;-70
2021/12/22 01:45:27;;;;;;;14.07;7.53;;;-0.90;99.90;;;;;;5064327;28;20212;-66
2021/12/22 01:50:42;;;;;;;17.60;9.50;;;-0.90;99.90;;;;;;5074625;28;20204;-68
2021/12/22 01:53:35;;;;;;;14.87;8.33;;;-0.90;99.90;;;;;;5074540;28;20206;-67
2021/12/22 01:56:11;;;;;;;14.20;7.83;;;-0.90;99.90;;;;;;5065013;28;20194;-68
2021/12/22 01:58:42;;;;;;;11.27;7.50;;;-0.80;99.90;;;;;;5060030;28;20280;-67
2021/12/22 02:01:10;;;;;;;13.63;8.30;;;-0.80;99.90;;;;;;5074701;28;20253;-67
2021/12/22 02:03:38;;;;;;;12.70;7.63;;;-0.80;99.90;;;;;;5072913;28;20650;-67
2021/12/22 02:06:06;;;;;;;14.20;7.87;;;-0.70;99.90;;;;;;5073066;28;20201;-67
2021/12/22 02:08:34;;;;;;;12.87;8.47;;;-0.70;99.90;;;;;;5072533;28;20651;-67
2021/12/22 02:11:01;;;;;;;11.43;7.90;;;-0.80;99.90;;;;;;5078869;28;20235;-68
2021/12/22 02:13:32;;;;;;;12.47;8.23;;;-0.70;99.90;;;;;;5076856;28;20209;-67
2021/12/22 02:16:06;;;;;;;12.80;8.87;;;-0.80;99.90;;;;;;5072461;28;20607;-67
2021/12/22 02:18:33;;;;;;;12.67;7.90;;;-0.70;99.90;;;;;;5072419;28;20285;-67
2021/12/22 02:21:02;;;;;;;12.30;8.63;;;-0.80;99.90;;;;;;5073064;28;20694;-68
2021/12/22 02:23:29;;;;;;;15.63;9.47;;;-0.90;99.90;;;;;;5072105;28;20209;-67
2021/12/22 02:26:01;;;;;;;15.70;8.93;;;-0.90;99.90;;;;;;5072930;28;20237;-68
2021/12/22 02:28:32;;;;;;;13.23;7.53;;;-0.90;99.90;;;;;;5084437;28;20299;-67
2021/12/22 02:30:59;;;;;;;15.37;8.47;;;-0.90;99.90;;;;;;5071245;28;20208;-67
2021/12/22 02:33:34;;;;;;;13.57;9.23;;;-0.80;99.90;;;;;;5072234;28;20209;-67
2021/12/22 02:36:20;;;;;;;13.90;8.60;;;-0.80;99.90;;;;;;5072342;28;20288;-68
2021/12/22 02:38:49;;;;;;;13.53;8.43;;;-0.80;99.90;;;;;;5072370;28;20216;-67
2021/12/22 02:41:19;;;;;;;17.10;8.47;;;-0.70;99.90;;;;;;5072048;28;20243;-67
2021/12/22 02:43:49;;;;;;;13.93;8.40;;;-0.70;99.90;;;;;;5072540;28;20209;-66
2021/12/22 02:46:19;;;;;;;12.50;8.43;;;-0.60;99.90;;;;;;5063931;28;20296;-67
2021/12/22 02:48:47;;;;;;;12.77;8.80;;;-0.60;99.90;;;;;;5071963;28;20930;-68
2021/12/22 02:51:16;;;;;;;14.67;8.40;;;-0.60;99.90;;;;;;5071450;28;20201;-67
2021/12/22 02:53:49;;;;;;;12.57;8.00;;;-0.70;99.90;;;;;;5071186;28;20592;-67
2021/12/22 02:56:29;;;;;;;14.33;8.30;;;-0.70;99.90;;;;;;5071603;28;20221;-67
2021/12/22 02:59:02;;;;;;;15.73;9.53;;;-0.70;99.90;;;;;;5071675;28;20197;-67
2021/12/22 03:02:04;;;;;;;11.83;7.93;;;-0.70;99.90;;;;;;5070401;28;20217;-67
2021/12/22 03:04:31;;;;;;;13.63;7.97;;;-0.70;99.90;;;;;;5071252;28;20302;-66
2021/12/22 03:07:03;;;;;;;12.43;8.07;;;-0.60;99.90;;;;;;5071110;28;20207;-66
2021/12/22 03:09:32;;;;;;;13.93;8.90;;;-0.70;99.90;;;;;;5070447;28;20263;-68
2021/12/22 03:12:01;;;;;;;12.77;8.33;;;-0.80;99.90;;;;;;5070745;28;20654;-68
2021/12/22 03:14:28;;;;;;;15.43;9.27;;;-0.80;99.90;;;;;;5079112;28;20558;-67
2021/12/22 03:16:57;;;;;;;16.10;9.33;;;-0.90;99.90;;;;;;5073913;28;20209;-67
2021/12/22 03:19:25;;;;;;;14.53;8.57;;;-0.90;99.90;;;;;;5070561;28;20216;-68
2021/12/22 03:21:59;;;;;;;11.50;7.53;;;-0.90;99.90;;;;;;5070466;28;20235;-68
2021/12/22 03:24:28;;;;;;;13.40;8.50;;;-0.90;99.90;;;;;;5071716;28;20585;-67
2021/12/22 03:26:59;;;;;;;12.80;8.67;;;-0.90;99.90;;;;;;5070906;28;20241;-67
2021/12/22 03:29:26;;;;;;;14.37;8.03;;;-0.90;99.90;;;;;;5071751;28;20409;-67
2021/12/22 03:31:53;;;;;;;13.77;8.60;;;-0.90;99.90;;;;;;5077248;28;20294;-67
2021/12/22 03:34:20;;;;;;;13.40;8.57;;;-0.90;99.90;;;;;;5071250;28;20211;-68
2021/12/22 03:36:47;;;;;;;14.03;8.17;;;-0.90;99.90;;;;;;5070634;28;20216;-67
2021/12/22 03:39:15;;;;;;;13.47;8.30;;;-0.90;99.90;;;;;;5070193;28;20215;-67
2021/12/22 03:41:45;;;;;;;16.23;8.37;;;-0.90;99.90;;;;;;5070680;28;20228;-67
2021/12/22 03:44:12;;;;;;;12.37;8.10;;;-1.00;99.90;;;;;;5070181;28;20212;-67
2021/12/22 03:46:40;;;;;;;11.27;7.57;;;-1.00;99.90;;;;;;5071228;28;20209;-68
2021/12/22 03:49:09;;;;;;;17.47;8.80;;;-1.00;99.90;;;;;;5070319;28;20296;-67
2021/12/22 03:51:36;;;;;;;14.83;9.03;;;-1.10;99.90;;;;;;5070758;28;20201;-68
2021/12/22 03:54:04;;;;;;;12.47;8.67;;;-1.10;99.90;;;;;;5071332;28;20256;-67
2021/12/22 03:56:31;;;;;;;14.13;8.87;;;-1.10;99.90;;;;;;5069709;28;20221;-67
2021/12/22 03:58:59;;;;;;;15.37;8.13;;;-1.10;99.90;;;;;;5071069;28;20313;-67
2021/12/22 04:01:26;;;;;;;13.37;8.30;;;-1.10;99.90;;;;;;5070766;28;20592;-66
2021/12/22 04:03:57;;;;;;;12.97;8.13;;;-1.10;99.90;;;;;;5070336;28;20291;-67
2021/12/22 04:06:24;;;;;;;11.83;8.20;;;-1.10;99.90;;;;;;5070155;28;20205;-66
2021/12/22 04:08:50;;;;;;;11.40;7.80;;;-1.10;99.90;;;;;;5056648;28;20650;-66
2021/12/22 04:11:17;;;;;;;11.90;7.57;;;-1.10;99.90;;;;;;5070636;28;20200;-68
2021/12/22 04:13:44;;;;;;;14.47;8.10;;;-1.10;99.90;;;;;;5069526;28;20208;-66
2021/12/22 04:16:12;;;;;;;13.00;7.93;;;-1.10;99.90;;;;;;5071142;28;20209;-66
2021/12/22 04:18:39;;;;;;;12.27;7.60;;;-1.20;99.90;;;;;;5071317;28;20209;-66
2021/12/22 04:21:06;;;;;;;11.27;7.03;;;-1.20;99.90;;;;;;5072700;28;20220;-68
2021/12/22 04:23:33;;;;;;;11.87;7.37;;;-1.20;99.90;;;;;;5075071;28;20213;-67
2021/12/22 04:26:00;;;;;;;12.47;8.30;;;-1.20;99.90;;;;;;5074482;28;20247;-67
2021/12/22 04:28:27;;;;;;;10.63;7.60;;;-1.30;99.90;;;;;;5075211;28;20208;-67
2021/12/22 04:30:54;;;;;;;11.30;6.97;;;-1.30;99.90;;;;;;5074549;28;20197;-66
2021/12/22 04:33:22;;;;;;;11.53;7.43;;;-1.30;99.90;;;;;;5075301;28;20646;-68
2021/12/22 04:35:49;;;;;;;12.57;8.57;;;-1.30;99.90;;;;;;5074026;28;20288;-67
2021/12/22 04:38:17;;;;;;;15.17;8.23;;;-1.30;99.90;;;;;;5065113;28;20208;-67
2021/12/22 04:40:44;;;;;;;13.93;8.77;;;-1.30;99.90;;;;;;5074491;28;20204;-66
2021/12/22 04:43:11;;;;;;;15.33;8.33;;;-1.40;99.90;;;;;;5074294;28;20604;-67
2021/12/22 04:45:37;;;;;;;13.07;8.43;;;-1.40;99.90;;;;;;5074402;28;20212;-67
2021/12/22 04:48:05;;;;;;;14.03;7.93;;;-1.40;99.90;;;;;;5070980;28;20197;-66
2021/12/22 04:50:34;;;;;;;13.37;8.37;;;-1.40;99.90;;;;;;5075308;28;20211;-67
2021/12/22 04:53:06;;;;;;;14.27;7.73;;;-1.40;99.90;;;;;;5074597;28;20208;-67
2021/12/22 04:55:33;;;;;;;14.33;8.60;;;-1.40;99.90;;;;;;5074850;28;20208;-67
2021/12/22 04:58:00;;;;;;;12.07;7.47;;;-1.40;99.90;;;;;;5074845;28;20320;-67
2021/12/22 05:00:30;;;;;;;11.97;7.83;;;-1.40;99.90;;;;;;5074988;28;20273;-67
2021/12/22 05:02:57;;;;;;;10.97;7.37;;;-1.40;99.90;;;;;;5074392;28;20225;-68
2021/12/22 05:05:25;;;;;;;11.40;7.40;;;-1.40;99.90;;;;;;5074305;28;20212;-67
2021/12/22 05:07:54;;;;;;;12.57;7.80;;;-1.40;99.90;;;;;;5073260;28;20213;-67
2021/12/22 05:10:21;;;;;;;10.77;7.33;;;-1.40;99.90;;;;;;5075443;28;20205;-67
2021/12/22 05:12:49;;;;;;;11.70;7.57;;;-1.40;99.90;;;;;;5074366;28;20642;-67
2021/12/22 05:15:19;;;;;;;10.70;7.43;;;-1.40;99.90;;;;;;5074339;28;20201;-67
2021/12/22 05:18:20;;;;;;;11.40;7.97;;;-1.40;99.90;;;;;;5074093;28;20201;-67
2021/12/22 05:20:47;;;;;;;13.60;8.23;;;-1.40;99.90;;;;;;5074129;28;20251;-68
2021/12/22 05:23:15;;;;;;;10.90;7.20;;;-1.40;99.90;;;;;;5072202;28;20217;-66
2021/12/22 05:25:42;;;;;;;11.67;7.53;;;-1.40;99.90;;;;;;5073872;28;20232;-66
2021/12/22 05:28:09;;;;;;;12.17;8.33;;;-1.40;99.90;;;;;;5074512;28;20197;-67
2021/12/22 05:30:36;;;;;;;10.67;7.33;;;-1.40;99.90;;;;;;5074094;28;20596;-67
2021/12/22 05:33:03;;;;;;;11.63;7.87;;;-1.40;99.90;;;;;;5073418;28;20209;-67
2021/12/22 05:35:30;;;;;;;9.40;7.30;;;-1.40;99.90;;;;;;5073220;28;20224;-66
2021/12/22 05:37:57;;;;;;;11.90;8.40;;;-1.40;99.90;;;;;;5073605;28;20674;-66
2021/12/22 05:40:27;;;;;;;10.60;7.67;;;-1.40;99.90;;;;;;5073004;28;20205;-67
2021/12/22 05:42:56;;;;;;;13.67;7.50;;;-1.40;99.90;;;;;;5059715;28;20220;-66
2021/12/22 05:45:23;;;;;;;10.47;7.53;;;-1.40;99.90;;;;;;5075321;28;20615;-66
2021/12/22 05:47:50;;;;;;;10.30;7.87;;;-1.40;99.90;;;;;;5074696;28;20228;-67
2021/12/22 05:50:17;;;;;;;13.60;7.90;;;-1.40;99.90;;;;;;5073274;28;20213;-67
2021/12/22 05:52:44;;;;;;;11.97;7.77;;;-1.40;99.90;;;;;;5073449;28;20216;-67
2021/12/22 05:55:11;;;;;;;13.90;9.27;;;-1.30;99.90;;;;;;5072411;28;20231;-67
2021/12/22 05:57:39;;;;;;;13.60;8.63;;;-1.30;99.90;;;;;;5081353;28;20225;-67
2021/12/22 06:00:08;;;;;;;11.87;7.53;;;-1.20;99.90;;;;;;5073636;28;20296;-68
2021/12/22 06:02:35;;;;;;;15.77;8.27;;;-1.20;99.90;;;;;;5079539;28;20713;-66
2021/12/22 06:05:02;;;;;;;12.17;7.80;;;-1.10;99.90;;;;;;5072911;28;20205;-67
2021/12/22 06:07:28;;;;;;;14.43;8.03;;;-1.10;99.90;;;;;;5073790;28;20265;-67
2021/12/22 06:09:55;;;;;;;12.60;8.10;;;-1.00;99.90;;;;;;5072945;28;20208;-67
2021/12/22 06:12:22;;;;;;;14.07;7.93;;;-1.00;99.90;;;;;;5072435;28;20211;-67
2021/12/22 06:14:50;;;;;;;12.00;7.80;;;-1.00;99.90;;;;;;5072004;28;20205;-66
2021/12/22 06:17:17;;;;;;;12.77;8.33;;;-1.00;99.90;;;;;;5080265;28;20205;-67
2021/12/22 06:19:44;;;;;;;12.40;8.67;;;-1.00;99.90;;;;;;5073004;28;20205;-70
2021/12/22 06:22:11;;;;;;;12.60;8.53;;;-1.00;99.90;;;;;;5073935;28;20320;-69
2021/12/22 06:24:38;;;;;;;12.60;7.90;;;-0.90;99.90;;;;;;5072252;28;20383;-67
2021/12/22 06:27:05;;;;;;;13.17;8.83;;;-0.90;99.90;;;;;;5071561;28;20245;-67
2021/12/22 06:29:32;;;;;;;12.37;7.77;;;-0.90;99.90;;;;;;5072184;28;20213;-67
2021/12/22 06:32:00;;;;;;;11.10;8.47;;;-0.90;99.90;;;;;;5078454;28;20201;-67
2021/12/22 06:34:27;;;;;;;14.30;9.00;;;-0.90;99.90;;;;;;5071466;28;20229;-67
2021/12/22 06:36:54;;;;;;;13.33;8.17;;;-0.90;99.90;;;;;;5071533;28;20205;-68
2021/12/22 06:39:21;;;;;;;13.50;9.30;;;-1.00;99.90;;;;;;5073264;28;20215;-67
2021/12/22 06:41:47;;;;;;;15.20;8.70;;;-0.90;99.90;;;;;;5071621;28;20516;-67
2021/12/22 06:44:14;;;;;;;12.57;8.73;;;-0.90;99.90;;;;;;5067999;28;20214;-67
2021/12/22 06:46:42;;;;;;;11.90;7.47;;;-0.90;99.90;;;;;;5062084;28;20213;-68
2021/12/22 06:49:11;;;;;;;14.17;8.63;;;-0.90;99.90;;;;;;5072068;28;20706;-68
2021/12/22 06:51:38;;;;;;;13.10;8.40;;;-0.90;99.90;;;;;;5072853;28;20205;-68
2021/12/22 06:54:05;;;;;;;15.40;8.97;;;-0.90;99.90;;;;;;5072714;28;20208;-67
2021/12/22 06:56:32;;;;;;;13.33;8.93;;;-0.90;99.90;;;;;;5072976;28;20316;-66
2021/12/22 06:59:00;;;;;;;15.93;9.57;;;-0.90;99.90;;;;;;5072453;28;20978;-67
2021/12/22 07:01:28;;;;;;;13.33;8.73;;;-0.90;99.90;;;;;;5076473;28;20293;-67
2021/12/22 07:03:55;;;;;;;15.87;10.40;;;-0.90;99.90;;;;;;5072606;28;20316;-67
2021/12/22 07:06:23;;;;;;;14.60;9.70;;;-0.90;99.90;;;;;;5073178;28;20717;-66
2021/12/22 07:08:50;;;;;;;16.23;10.17;;;-0.90;99.90;;;;;;5072499;28;20688;-66
2021/12/22 07:11:17;;;;;;;14.47;9.60;;;-0.90;99.90;;;;;;5072083;28;20201;-71
2021/12/22 07:13:44;;;;;;;14.63;9.97;;;-0.90;99.90;;;;;;5072172;28;20283;-69
2021/12/22 07:16:11;;;;;;;18.97;10.63;;;-0.90;99.90;;;;;;5071895;28;20201;-70
2021/12/22 07:18:38;;;;;;;14.83;9.57;;;-0.90;99.90;;;;;;5072375;28;20237;-69
2021/12/22 07:21:05;;;;;;;15.60;11.20;;;-0.90;99.90;;;;;;5072173;28;20636;-67
2021/12/22 07:23:33;;;;;;;15.63;10.03;;;-0.90;99.90;;;;;;5072010;28;20220;-68
2021/12/22 07:26:00;;;;;;;16.43;9.80;;;-0.80;99.90;;;;;;5071663;28;20241;-67
2021/12/22 07:28:27;;;;;;;14.10;9.87;;;-0.80;99.90;;;;;;5072197;28;20213;-68
2021/12/22 07:30:54;;;;;;;18.27;10.53;;;-0.80;99.90;;;;;;5072795;28;20284;-68
2021/12/22 07:33:22;;;;;;;14.00;10.20;;;-0.80;99.90;;;;;;5072157;28;20225;-68
2021/12/22 07:35:58;;;;;;;14.70;9.93;;;-0.70;99.90;;;;;;5071210;28;20265;-70
2021/12/22 07:38:32;;;;;;;14.57;9.40;;;-0.70;99.90;;;;;;5072344;28;20205;-69
2021/12/22 07:41:01;;;;;;;13.57;9.47;;;-0.70;99.90;;;;;;5071601;28;20212;-69
2021/12/22 07:43:29;;;;;;;14.20;10.23;;;-0.80;99.90;;;;;;5072099;28;20274;-69
2021/12/22 07:45:57;;;;;;;14.80;9.80;;;-0.80;99.90;;;;;;5073190;28;20204;-69
2021/12/22 07:48:24;;;;;;;17.67;10.60;;;-0.80;99.90;;;;;;5072465;28;20205;-70
2021/12/22 07:50:51;;;;;;;15.33;9.73;;;-0.80;99.90;;;;;;5076719;28;20726;-70
2021/12/22 07:53:19;;;;;;;16.50;10.60;;;-0.80;99.90;;;;;;5071890;28;20236;-68
2021/12/22 07:55:46;;;;;;;15.27;10.03;;;-0.80;99.90;;;;;;5070983;28;20248;-71
2021/12/22 07:58:15;;;;;;;16.13;9.87;;;-0.80;99.90;;;;;;5072134;28;20207;-69
2021/12/22 08:00:42;;;;;;;21.07;11.90;;;-0.70;99.90;;;;;;5076336;28;20576;-68
2021/12/22 08:03:11;;;;;;;16.50;10.10;;;-0.70;99.90;;;;;;5071071;28;20231;-68
2021/12/22 08:05:38;;;;;;;16.50;9.90;;;-0.70;99.90;;;;;;5072399;28;20201;-69
2021/12/22 08:08:06;;;;;;;17.47;10.90;;;-0.70;99.90;;;;;;5071667;28;20201;-68
2021/12/22 08:10:33;;;;;;;19.63;10.73;;;-0.60;99.90;;;;;;5075516;28;20731;-69
2021/12/22 08:13:00;;;;;;;17.47;11.20;;;-0.60;99.90;;;;;;5072291;28;20206;-68
2021/12/22 08:15:29;;;;;;;17.97;10.97;;;-0.60;99.90;;;;;;5071139;28;20233;-70
2021/12/22 08:17:56;;;;;;;18.67;10.53;;;-0.60;99.90;;;;;;5071281;28;20212;-70
2021/12/22 08:20:24;;;;;;;20.53;11.27;;;-0.60;99.90;;;;;;5071026;28;20296;-70
2021/12/22 08:22:51;;;;;;;19.07;11.13;;;-0.60;99.90;;;;;;5077232;28;20636;-70
2021/12/22 08:25:18;;;;;;;20.87;12.10;;;-0.60;99.90;;;;;;5072362;28;20462;-70
2021/12/22 08:27:45;;;;;;;20.13;11.77;;;-0.60;99.90;;;;;;5074566;28;20240;-70
2021/12/22 08:30:13;;;;;;;19.17;11.60;;;-0.60;99.90;;;;;;5069733;28;20213;-69
2021/12/22 08:32:41;;;;;;;20.13;11.43;;;-0.60;99.90;;;;;;5089453;28;20279;-70
2021/12/22 08:35:13;;;;;;;17.73;10.87;;;-0.60;99.90;;;;;;5078854;28;20201;-70
2021/12/22 08:40:25;;;;;;;20.77;12.83;;;-0.50;99.90;;;;;;5070785;28;20292;-70
2021/12/22 08:42:52;;;;;;;18.20;11.77;;;-0.50;99.90;;;;;;5084369;28;20598;-70
2021/12/22 08:45:20;;;;;;;20.33;11.97;;;-0.50;99.90;;;;;;5078510;28;20204;-70
2021/12/22 08:47:48;;;;;;;21.17;12.23;;;-0.40;99.90;;;;;;5069113;28;20210;-69
2021/12/22 08:50:17;;;;;;;18.70;11.37;;;-0.40;99.90;;;;;;5070919;28;20209;-69
2021/12/22 08:52:45;;;;;;;19.43;12.13;;;-0.40;99.90;;;;;;5080025;28;20215;-69
2021/12/22 08:55:13;;;;;;;26.07;12.23;;;-0.50;99.90;;;;;;5069857;28;20682;-69
2021/12/22 08:57:40;;;;;;;25.40;13.90;;;-0.50;99.90;;;;;;5071446;28;20233;-69
2021/12/22 09:00:10;;;;;;;20.73;12.73;;;-0.50;99.90;;;;;;5070775;28;20435;-70
2021/12/22 09:02:37;;;;;;;21.63;13.33;;;-0.40;99.90;;;;;;5070745;28;20236;-70
2021/12/22 09:05:06;;;;;;;20.07;12.27;;;-0.40;99.90;;;;;;5082247;28;20240;-70
2021/12/22 09:07:33;;;;;;;20.43;12.23;;;-0.40;99.90;;;;;;5067032;28;20241;-70
2021/12/22 09:10:00;;;;;;;21.13;11.63;;;-0.30;99.90;;;;;;5072680;28;20208;-70
2021/12/22 09:12:29;;;;;;;20.67;12.30;;;-0.30;99.90;;;;;;5073856;28;20637;-69
2021/12/22 09:14:56;;;;;;;21.03;11.53;;;-0.30;99.90;;;;;;5078205;28;20204;-70
2021/12/22 09:17:23;;;;;;;22.17;12.77;;;-0.30;99.90;;;;;;5060660;28;20212;-69
2021/12/22 09:19:52;;;;;;;19.37;10.97;;;-0.30;99.90;;;;;;5070964;28;20299;-70
2021/12/22 09:22:20;;;;;;;21.07;12.00;;;-0.30;99.90;;;;;;5070125;28;20236;-69
2021/12/22 09:24:47;;;;;;;21.87;12.50;;;-0.40;99.90;;;;;;5067260;28;20244;-69
2021/12/22 09:27:14;;;;;;;21.40;11.83;;;-0.40;99.90;;;;;;5070014;28;20730;-70
2021/12/22 09:29:42;;;;;;;24.77;12.73;;;-0.40;99.90;;;;;;5062715;28;20675;-69
2021/12/22 09:32:12;;;;;;;21.97;12.93;;;-0.40;99.90;;;;;;5070767;28;20729;-69
2021/12/22 09:34:39;;;;;;;26.63;12.87;;;-0.50;99.90;;;;;;5066059;28;20539;-69
2021/12/22 09:37:06;;;;;;;23.87;12.17;;;-0.50;99.90;;;;;;5066355;28;20205;-69
2021/12/22 09:39:34;;;;;;;23.40;13.93;;;-0.50;99.90;;;;;;5069474;28;20219;-70
2021/12/22 09:42:01;;;;;;;23.97;12.73;;;-0.50;99.90;;;;;;5065241;28;20288;-69
2021/12/22 09:44:32;;;;;;;24.73;12.40;;;-0.50;99.90;;;;;;5068554;28;20312;-70
2021/12/22 09:46:59;;;;;;;22.67;11.33;;;-0.50;99.90;;;;;;5069219;28;20205;-70
2021/12/22 09:49:37;;;;;;;18.77;11.43;;;-0.50;99.90;;;;;;5067305;28;20205;-69
2021/12/22 09:52:19;;;;;;;23.53;12.87;;;0.00;99.90;;;;;;5069453;28;20232;-70
2021/12/22 09:54:49;;;;;;;22.70;13.27;;;-0.40;99.90;;;;;;5070978;28;20209;-69
2021/12/22 09:57:17;;;;;;;23.33;13.87;;;-0.30;99.90;;;;;;5060256;28;20225;-69
2021/12/22 09:59:46;;;;;;;23.17;13.63;;;-0.30;99.90;;;;;;5065530;28;20209;-69
2021/12/22 10:02:14;;;;;;;20.70;12.33;;;-0.30;99.90;;;;;;5067687;28;20680;-69
2021/12/22 10:04:41;;;;;;;24.00;11.97;;;-0.30;99.90;;;;;;5069618;28;20217;-68
2021/12/22 10:07:09;;;;;;;19.43;11.97;;;-0.30;99.90;;;;;;5061912;28;20575;-69
2021/12/22 10:09:44;;;;;;;22.50;12.10;;;-0.20;99.90;;;;;;5064768;28;20632;-70
2021/12/22 10:12:17;;;;;;;20.13;11.23;;;-0.10;99.90;;;;;;5066966;28;20200;-70
2021/12/22 10:14:55;;;;;;;20.23;11.00;;;-0.10;99.90;;;;;;5068922;28;20947;-69
2021/12/22 10:17:31;;;;;;;20.13;12.00;;;-0.10;99.90;;;;;;5059766;28;20635;-69
2021/12/22 10:19:59;;;;;;;17.70;10.47;;;-0.10;99.90;;;;;;5060864;28;20238;-70
2021/12/22 10:22:35;;;;;;;18.33;11.03;;;0.00;99.90;;;;;;5064217;28;20622;-70
2021/12/22 10:25:08;;;;;;;18.37;10.63;;;0.00;99.90;;;;;;5069933;28;20207;-69
2021/12/22 10:27:38;;;;;;;17.80;10.97;;;0.00;99.90;;;;;;5060099;28;20237;-70
2021/12/22 10:30:23;;;;;;;19.13;11.23;;;-0.10;99.90;;;;;;5065798;28;20300;-70
2021/12/22 10:32:49;;;;;;;19.37;10.77;;;-0.10;99.90;;;;;;5064005;28;20252;-70
2021/12/22 10:35:16;;;;;;;20.50;11.60;;;-0.10;99.90;;;;;;5072456;28;20213;-70
2021/12/22 10:37:45;;;;;;;21.80;12.93;;;-0.10;99.90;;;;;;5064459;28;20328;-70
2021/12/22 10:40:27;;;;;;;23.17;12.70;;;-0.10;99.90;;;;;;5059613;28;20221;-70
2021/12/22 10:42:56;;;;;;;25.43;13.10;;;-0.10;99.90;;;;;;5063258;28;20205;-70
2021/12/22 10:45:25;;;;;;;20.83;12.67;;;-0.10;99.90;;;;;;5064045;28;20296;-70
2021/12/22 10:50:39;;;;;;;20.33;11.80;;;-0.10;99.90;;;;;;5067434;28;20255;-70
2021/12/22 10:53:08;;;;;;;22.63;12.73;;;-0.10;99.90;;;;;;5065009;28;20253;-70
2021/12/22 10:55:40;;;;;;;24.03;13.43;;;-0.10;99.90;;;;;;5064419;28;20674;-71
2021/12/22 10:58:20;;;;;;;20.33;11.60;;;-0.10;99.90;;;;;;5065139;28;20229;-70
2021/12/22 11:01:01;;;;;;;21.37;12.67;;;-0.10;99.90;;;;;;5065452;28;20658;-70
2021/12/22 11:03:37;;;;;;;21.03;13.20;;;-0.10;99.90;;;;;;5066359;28;20605;-70
2021/12/22 11:06:11;;;;;;;20.67;12.47;;;-0.10;99.90;;;;;;5064133;28;20211;-70
2021/12/22 11:08:39;;;;;;;26.37;13.77;;;-0.10;99.90;;;;;;5067029;28;20197;-68
2021/12/22 11:11:13;;;;;;;22.37;12.93;;;-0.10;99.90;;;;;;5067226;28;20212;-70
2021/12/22 11:13:41;;;;;;;23.53;13.03;;;-0.10;99.90;;;;;;5064311;28;20201;-69
2021/12/22 11:16:12;;;;;;;22.53;12.47;;;-0.10;99.90;;;;;;5066279;28;20733;-70
2021/12/22 11:18:39;;;;;;;25.13;13.77;;;-0.10;99.90;;;;;;5067686;28;20202;-70
2021/12/22 11:21:13;;;;;;;24.63;14.23;;;0.00;99.90;;;;;;5069871;28;20226;-71
2021/12/22 11:23:41;;;;;;;23.67;13.33;;;-0.10;99.90;;;;;;5066999;28;20209;-69
2021/12/22 11:26:09;;;;;;;24.27;12.63;;;-0.10;99.90;;;;;;5069094;28;20255;-70
2021/12/22 11:28:36;;;;;;;21.37;13.57;;;-0.10;99.90;;;;;;5069613;28;20205;-69
2021/12/22 11:31:08;;;;;;;24.23;12.70;;;-0.10;99.90;;;;;;5070428;28;20203;-69
2021/12/22 11:33:35;;;;;;;22.40;12.40;;;-0.10;99.90;;;;;;5067349;28;20557;-69
2021/12/22 11:36:04;;;;;;;25.00;13.30;;;-0.20;99.90;;;;;;5067799;28;20206;-70
2021/12/22 11:38:33;;;;;;;22.23;12.77;;;-0.20;99.90;;;;;;5068631;28;20206;-70
2021/12/22 11:41:10;;;;;;;21.47;11.73;;;-0.20;99.90;;;;;;5059586;28;20573;-70
2021/12/22 11:43:40;;;;;;;22.93;13.07;;;-0.30;99.90;;;;;;5072864;28;20212;-69
2021/12/22 11:46:09;;;;;;;24.37;12.27;;;-0.30;99.90;;;;;;5066598;28;20202;-69
2021/12/22 11:48:38;;;;;;;22.10;12.53;;;-0.20;99.90;;;;;;5069599;28;20236;-70
2021/12/22 11:51:22;;;;;;;21.73;12.00;;;-0.20;99.90;;;;;;5058368;28;20240;-70
2021/12/22 11:53:54;;;;;;;23.97;12.50;;;-0.20;99.90;;;;;;5068445;28;20272;-71
2021/12/22 11:56:39;;;;;;;22.80;12.00;;;-0.20;99.90;;;;;;5063619;28;20700;-70
2021/12/22 11:59:06;;;;;;;21.10;12.77;;;-0.20;99.90;;;;;;5069196;28;20690;-70
2021/12/22 12:01:35;;;;;;;20.47;12.80;;;-0.10;99.90;;;;;;5064264;28;20235;-70
2021/12/22 12:04:13;;;;;;;22.60;13.13;;;-0.10;99.90;;;;;;5067311;28;20700;-71
2021/12/22 12:06:50;;;;;;;21.87;12.47;;;-0.10;99.90;;;;;;5057074;28;20263;-70
2021/12/22 12:09:23;;;;;;;19.63;12.87;;;-0.10;99.90;;;;;;5065083;28;20213;-68
2021/12/22 12:11:53;;;;;;;24.50;12.90;;;-0.10;99.90;;;;;;5070125;28;20291;-68
2021/12/22 12:15:04;;;;;;;24.73;14.23;;;-0.10;99.90;;;;;;5073876;28;20209;-71
2021/12/22 12:23:27;;;;;;;25.80;13.83;;;-0.20;99.90;;;;;;5072164;28;20286;-69
2021/12/22 12:25:54;;;;;;;23.33;13.47;;;-0.20;99.90;;;;;;5057796;28;20317;-68
2021/12/22 12:28:21;;;;;;;23.17;12.87;;;-0.20;99.90;;;;;;5061524;28;20205;-68
2021/12/22 12:30:50;;;;;;;23.97;13.43;;;-0.20;99.90;;;;;;5058566;28;20259;-70
2021/12/22 12:33:24;;;;;;;27.00;13.00;;;-0.20;99.90;;;;;;5057351;28;20210;-70
2021/12/22 12:36:04;;;;;;;21.93;13.27;;;-0.20;99.90;;;;;;5065851;28;20212;-68
2021/12/22 12:38:47;;;;;;;20.20;12.43;;;-0.20;99.90;;;;;;5066212;28;20669;-69
2021/12/22 12:41:22;;;;;;;22.47;13.20;;;-0.30;99.90;;;;;;5049818;28;20201;-68
2021/12/22 12:43:53;;;;;;;25.30;13.57;;;-0.30;99.90;;;;;;5070628;28;20217;-68
2021/12/22 12:46:42;;;;;;;23.67;12.50;;;-0.40;99.90;;;;;;5059920;28;20693;-68
2021/12/22 12:49:41;;;;;;;21.83;13.03;;;-0.40;99.90;;;;;;5067196;28;20730;-68
2021/12/22 12:52:25;;;;;;;22.93;14.33;;;-0.40;99.90;;;;;;5065810;28;20198;-69
2021/12/22 12:55:12;;;;;;;27.67;14.43;;;-0.50;99.90;;;;;;5062487;28;20240;-68
2021/12/22 12:57:39;;;;;;;22.73;13.20;;;-0.40;99.90;;;;;;5069960;28;20744;-68
2021/12/22 13:00:19;;;;;;;20.80;12.67;;;-0.50;99.90;;;;;;5064504;28;20677;-68